Latest Weather Observations for Hobart Airport

IDT60901

Issued at 1:15 pm EST Wednesday 30 July 2014 (issued every 10 minutes, with the page automatically refreshed every 10 minutes)

About weather observations | Map of Hobart area stations | Latest observations for Hobart area | Other Formats
Station Details ID: 094008 Name: HOBART AIRPORT Lat: -42.83 Lon: 147.50 Height: 4.0 m
Data from the previous 72 hours. | See also: Recent months at Hobart Airport
Date/Time
EST
Tmp

°C
App
Tmp
°C
Dew
Point
°C
Rel
Hum
%
Delta-T

°C
Wind Press
QNH
hPa
Press
MSL
hPa
Rain
since
9 am
mm
Dir
 
Spd
km/h
Gust
km/h
Spd
kts
Gust
kts
30/01:00pm 12.8 2.6 5.4 60 3.5 NW 48 59 26 32 994.0 994.1 0.0
30/12:30pm 13.2 2.6 5.1 58 3.8 NW 50 70 27 38 993.8 - 0.0
30/12:11pm 13.0 3.1 4.8 57 3.8 NW 46 67 25 36 993.7 - 0.0
30/12:00pm 12.7 2.6 5.5 61 3.4 NW 48 61 26 33 993.8 993.9 0.0
30/11:30am 12.3 0.5 5.5 63 3.2 NW 57 76 31 41 993.8 - 0.0
30/11:00am 13.3 0.9 4.4 55 4.1 NW 59 78 32 42 993.8 993.9 0.0
30/10:30am 13.3 1.1 3.9 53 4.3 NW 57 76 31 41 994.3 - 0.0
30/10:00am 12.5 0.9 3.7 55 4.0 NW 54 72 29 39 994.4 994.5 0.0
30/09:35am 12.2 1.6 3.3 54 3.9 NW 48 67 26 36 994.6 - 0.0
30/09:30am 12.1 0.8 3.4 55 3.9 NW 52 67 28 36 994.5 - 0.0
30/09:00am 11.1 2.1 2.6 56 3.7 NW 39 52 21 28 994.6 994.7 8.6
30/08:37am 10.4 0.1 2.5 58 3.4 NW 46 65 25 35 995.0 - 8.6
30/08:30am 10.4 -0.7 2.5 58 3.4 NW 50 65 27 35 995.2 - 8.6
30/08:21am 10.3 2.0 2.4 58 3.4 NW 35 56 19 30 995.3 - 8.6
30/08:00am 9.7 0.2 1.6 57 3.4 NW 41 56 22 30 995.2 995.3 8.6
30/07:51am 9.7 1.7 0.4 52 3.8 NW 32 52 17 28 995.4 - 8.6
30/07:30am 9.0 1.7 0.1 53 3.5 NW 28 39 15 21 995.5 - 8.6
30/07:00am 9.4 1.8 0.3 53 3.7 NW 30 41 16 22 995.1 995.2 8.6
30/06:30am 8.9 1.4 1.1 58 3.2 NNW 30 39 16 21 995.9 - 8.6
30/06:00am 8.4 1.9 2.5 66 2.5 NNW 26 37 14 20 996.3 996.4 8.6
30/05:30am 8.5 1.3 2.9 68 2.4 NW 30 39 16 21 996.4 - 8.6
30/05:00am 9.8 2.1 0.2 51 3.9 NW 30 44 16 24 996.3 996.4 8.6
30/04:30am 9.5 1.4 0.7 54 3.6 WNW 33 54 18 29 996.2 - 8.6
30/04:00am 10.5 1.3 -1.7 42 4.8 WNW 37 56 20 30 995.6 995.7 8.6
30/03:32am 9.3 1.0 2.0 60 3.1 WNW 35 59 19 32 995.3 - 8.6
30/03:30am 9.4 1.0 1.8 59 3.2 WNW 35 52 19 28 995.2 - 8.6
30/03:00am 9.0 1.4 3.0 66 2.6 WNW 32 50 17 27 994.3 994.4 8.6
30/02:30am 9.1 2.2 2.6 64 2.8 WNW 28 46 15 25 994.0 - 8.6
30/02:08am 8.6 1.8 3.3 69 2.3 NNW 28 48 15 26 993.4 - 8.6
30/02:00am 8.5 2.9 3.4 70 2.2 NNW 22 30 12 16 993.1 993.2 8.6
30/01:30am 9.9 0.1 -0.2 49 4.0 WNW 41 69 22 37 991.9 - 8.6
30/01:00am 8.4 -1.4 3.3 70 2.2 WNW 44 63 24 34 993.0 993.1 8.4
30/12:30am 8.3 -0.2 3.2 70 2.2 W 37 52 20 28 992.0 - 7.6
30/12:08am 9.6 1.7 2.1 59 3.2 WNW 33 54 18 29 991.3 - 7.0
 
Date/Time
EST
Tmp

°C
App
Tmp
°C
Dew
Point
°C
Rel
Hum
%
Delta-T

°C
Wind Press
QNH
hPa
Press
MSL
hPa
Rain
since
9 am
mm
Dir
 
Spd
km/h
Gust
km/h
Spd
kts
Gust
kts
29/11:30pm 8.4 -1.1 4.1 74 1.9 WNW 43 63 23 34 991.0 - 7.0
29/11:18pm 9.5 -0.3 2.5 61 3.0 WNW 43 83 23 45 990.5 - 6.2
29/11:03pm 9.5 1.9 3.1 64 2.8 NNW 32 56 17 30 989.6 - 6.0
29/11:00pm 9.6 2.4 2.9 63 2.9 NNW 30 44 16 24 989.7 989.8 5.8
29/10:42pm 10.4 2.0 1.4 53 3.8 NW 35 57 19 31 988.9 - 5.8
29/10:30pm 11.0 1.7 0.4 48 4.3 WNW 39 46 21 25 989.4 - 5.8
29/10:10pm 11.6 -4.1 -0.6 43 4.9 W 72 104 39 56 989.3 - 5.8
29/10:08pm 11.8 1.9 -1.0 41 5.1 W 41 82 22 44 988.7 - 5.8
29/10:00pm 12.4 2.2 -3.3 33 6.1 WNW 41 54 22 29 988.6 988.7 5.8
29/09:30pm 11.6 1.4 -0.3 44 4.8 W 43 65 23 35 988.5 - 5.8
29/09:11pm 11.1 2.3 1.5 51 4.0 WNW 37 56 20 30 988.5 - 5.8
29/09:00pm 10.1 1.6 3.3 62 3.0 WNW 37 50 20 27 988.3 988.4 5.8
29/08:30pm 9.4 -2.2 4.0 69 2.4 WNW 54 74 29 40 988.1 - 5.8
29/08:28pm 9.3 -2.6 4.4 71 2.2 WNW 56 74 30 40 988.0 - 5.4
29/08:26pm 9.4 -2.7 4.3 70 2.3 WNW 57 74 31 40 988.2 - 5.4
29/08:22pm 10.8 -1.4 3.6 61 3.2 NW 57 74 31 40 989.1 - 5.2
29/08:04pm 10.5 3.5 4.1 64 2.8 NNW 30 50 16 27 987.0 - 5.2
29/08:00pm 10.6 4.3 3.9 63 3.0 NW 26 35 14 19 986.9 987.0 5.2
29/07:51pm 10.6 3.9 3.7 62 3.0 N 28 35 15 19 986.6 - 5.2
29/07:30pm 11.1 -0.6 3.2 58 3.5 NW 54 83 29 45 986.7 - 5.0
29/07:25pm 10.9 0.4 3.5 60 3.3 NW 48 83 26 45 986.4 - 5.0
29/07:00pm 10.7 2.6 5.1 68 2.6 NNW 37 65 20 35 986.3 986.4 5.0
29/06:30pm 11.6 1.9 3.9 59 3.4 NW 44 67 24 36 986.6 - 5.0
29/06:19pm 11.8 3.6 4.6 61 3.3 WNW 37 56 20 30 986.1 - 5.0
29/06:17pm 11.7 3.2 5.0 63 3.1 WNW 39 56 21 30 985.9 - 5.0
29/06:02pm 11.4 5.6 8.0 79 1.7 W 28 52 15 28 986.9 - 4.2
29/06:00pm 11.4 6.0 8.0 79 1.7 W 26 35 14 19 986.7 986.8 3.8
29/05:59pm 11.4 6.4 8.0 79 1.7 W 24 33 13 18 986.4 - 3.8
29/05:30pm 10.0 6.7 8.0 87 1.0 N 15 20 8 11 984.3 - 3.6
29/05:21pm 10.4 7.5 8.2 86 1.1 NNW 13 17 7 9 984.8 - 3.6
29/05:00pm 11.0 6.6 7.5 79 1.7 NNW 20 35 11 19 985.5 985.6 2.8
29/04:30pm 10.9 4.7 7.8 81 1.5 NNW 30 48 16 26 985.0 - 2.6
29/04:18pm 11.2 5.3 7.5 78 1.8 NNW 28 46 15 25 985.0 - 2.0
29/04:00pm 11.8 6.4 6.4 69 2.6 NNW 24 37 13 20 985.1 985.2 1.0
29/03:30pm 11.4 5.3 6.6 72 2.3 NW 28 37 15 20 985.9 - 1.0
29/03:00pm 11.5 4.4 6.5 71 2.4 NW 33 43 18 23 986.6 986.7 0.8
29/02:35pm 11.5 2.6 5.3 65 2.9 NNW 41 61 22 33 987.0 - 0.8
29/02:30pm 11.6 2.7 5.2 65 2.9 NNW 41 57 22 31 986.8 - 0.8
29/02:00pm 12.1 4.2 4.5 59 3.5 NNW 35 50 19 27 987.2 987.3 0.8
29/01:46pm 11.9 3.7 4.8 62 3.2 NNW 37 56 20 30 987.3 - 0.8
29/01:30pm 11.5 2.8 4.0 60 3.4 NNW 39 56 21 30 987.5 - 0.8
29/01:00pm 10.2 2.2 5.9 74 2.0 NNW 37 59 20 32 989.2 989.3 0.8
29/12:30pm 10.0 3.0 6.9 81 1.5 NW 33 52 18 28 990.5 - 0.8
29/12:00pm 11.0 3.4 5.7 70 2.5 NW 35 52 19 28 990.2 990.3 0.4
29/11:31am 10.8 2.9 6.4 74 2.1 NW 37 56 20 30 990.2 - 0.4
29/11:30am 10.9 2.6 6.0 72 2.3 NW 39 56 21 30 990.2 - 0.4
29/11:05am 11.8 1.1 4.6 61 3.3 NW 50 82 27 44 990.3 - 0.0
29/11:00am 12.5 1.7 4.2 57 3.8 NW 50 65 27 35 990.1 990.2 0.0
29/10:34am 12.6 6.1 6.6 67 2.9 NNW 30 48 16 26 990.2 - 0.0
29/10:30am 12.7 6.7 7.0 68 2.7 NNW 28 39 15 21 989.9 - 0.0
29/10:07am 12.5 6.5 7.2 70 2.6 NNW 28 52 15 28 990.1 - 0.0
29/10:00am 12.6 7.5 7.5 71 2.5 NW 24 37 13 20 990.4 990.5 0.0
29/09:30am 11.8 9.3 8.4 80 1.7 NNW 11 17 6 9 990.4 - 0.0
29/09:00am 11.4 8.0 9.0 85 1.2 N 17 30 9 16 990.5 990.6 4.8
29/08:30am 10.6 5.4 8.8 89 0.9 N 26 33 14 18 990.6 - 4.0
29/08:20am 11.0 5.3 8.2 83 1.4 N 28 39 15 21 990.9 - 3.2
29/08:00am 10.2 7.2 7.7 84 1.2 N 13 20 7 11 991.3 991.4 1.2
29/07:30am 10.2 7.6 7.7 84 1.2 NNW 11 15 6 8 991.7 - 1.0
29/07:00am 11.5 5.8 6.5 71 2.4 NW 26 33 14 18 992.4 992.5 0.4
29/06:52am 12.4 5.7 5.4 62 3.3 NNW 30 43 16 23 992.3 - 0.2
29/06:42am 12.0 5.0 6.1 67 2.8 N 32 50 17 27 991.4 - 0.2
29/06:30am 11.9 4.3 6.0 67 2.8 N 35 50 19 27 990.8 - 0.2
29/06:15am 12.3 4.1 4.7 60 3.5 N 37 56 20 30 990.9 - 0.2
29/06:00am 12.5 3.9 4.7 59 3.6 N 39 56 21 30 991.2 991.3 0.2
29/05:38am 12.2 5.1 3.8 56 3.8 N 30 48 16 26 991.9 - 0.2
29/05:30am 12.1 5.1 4.0 57 3.6 N 30 43 16 23 992.0 - 0.2
29/05:17am 11.9 5.3 4.0 58 3.5 N 28 48 15 26 992.3 - 0.2
29/05:00am 11.4 7.3 4.1 61 3.3 N 15 30 8 16 993.0 993.1 0.2
29/04:30am 10.9 6.8 4.3 64 3.0 N 15 26 8 14 993.9 - 0.2
29/04:00am 10.3 7.5 5.1 70 2.4 NNW 9 19 5 10 994.8 994.9 0.2
29/03:00am 11.3 6.2 4.0 61 3.3 N 20 30 11 16 995.9 996.0 0.2
29/02:30am 11.0 5.6 4.4 64 3.0 N 22 32 12 17 996.5 - 0.2
29/02:00am 11.2 5.3 4.1 61 3.2 N 24 32 13 17 996.9 997.0 0.2
29/01:30am 9.3 3.5 4.4 71 2.2 N 24 35 13 19 997.4 - 0.2
29/01:00am 9.7 6.0 4.3 69 2.4 N 13 19 7 10 998.1 998.1 0.2
29/12:30am 10.8 6.2 3.9 62 3.1 NNW 17 24 9 13 998.9 - 0.2
29/12:00am 10.5 6.0 4.0 64 2.9 NNW 17 32 9 17 999.2 999.2 0.2
 
Date/Time
EST
Tmp

°C
App
Tmp
°C
Dew
Point
°C
Rel
Hum
%
Delta-T

°C
Wind Press
QNH
hPa
Press
MSL
hPa
Rain
since
9 am
mm
Dir
 
Spd
km/h
Gust
km/h
Spd
kts
Gust
kts
28/11:30pm 10.7 6.1 3.7 62 3.1 NNW 17 28 9 15 999.5 - 0.2
28/11:00pm 11.7 6.6 3.1 55 3.8 N 19 26 10 14 999.7 999.7 0.2
28/10:30pm 11.6 6.9 3.3 56 3.7 N 17 28 9 15 1000.0 - 0.2
28/10:00pm 11.9 5.2 3.6 57 3.7 N 28 41 15 22 1000.6 1000.6 0.2
28/09:30pm 11.6 6.0 3.3 56 3.7 N 22 37 12 20 1000.4 - 0.2
28/09:00pm 11.1 5.3 4.2 62 3.1 NNW 24 37 13 20 1000.7 1000.7 0.2
28/08:30pm 12.3 5.5 3.3 54 4.0 NNW 28 46 15 25 1001.3 - 0.2
28/08:26pm 12.3 5.5 3.3 54 4.0 NNW 28 46 15 25 1001.4 - 0.2
28/08:00pm 11.2 7.1 4.1 61 3.2 N 15 22 8 12 1001.8 1001.8 0.2
28/07:30pm 12.7 9.5 3.3 52 4.2 N 9 17 5 9 1002.1 - 0.2
28/07:00pm 13.1 6.2 2.4 48 4.7 NW 28 44 15 24 1002.1 1002.1 0.2
28/06:30pm 13.6 8.2 1.0 42 5.4 NNW 19 24 10 13 1001.9 - 0.2
28/06:00pm 13.0 9.5 1.1 44 5.1 N 9 15 5 8 1001.4 1001.4 0.2
28/05:30pm 11.8 8.2 2.7 53 4.0 N 11 15 6 8 1001.2 - 0.2
28/05:00pm 14.1 9.0 0.5 39 5.8 NNW 17 32 9 17 1001.4 1001.4 0.2
28/04:30pm 14.5 9.6 -0.2 36 6.2 NW 15 28 8 15 1001.8 - 0.2
28/04:00pm 15.4 8.6 -1.6 31 7.0 NNW 24 37 13 20 1001.7 1001.7 0.2
28/03:30pm 15.9 8.3 -2.2 29 7.4 NW 28 41 15 22 1001.8 - 0.2
28/03:00pm 16.1 8.3 -0.7 31 7.1 NW 30 48 16 26 1002.2 1002.2 0.2
28/02:39pm 16.1 7.9 -0.7 31 7.1 NW 32 50 17 27 1002.2 - 0.2
28/02:30pm 16.0 7.8 0.2 34 6.8 NW 33 48 18 26 1002.2 - 0.2
28/02:13pm 16.0 7.9 -0.1 33 6.9 NW 32 50 17 27 1002.3 - 0.2
28/02:00pm 16.3 7.8 0.7 34 6.8 NW 35 46 19 25 1002.4 1002.4 0.2
28/01:30pm 16.2 7.2 -0.1 33 6.9 WNW 37 52 20 28 1002.9 - 0.2
28/01:00pm 15.7 7.3 1.4 38 6.3 NW 35 50 19 27 1003.5 1003.5 0.2
28/12:30pm 15.3 7.1 0.4 36 6.4 NW 33 48 18 26 1004.0 - 0.2
28/12:00pm 15.2 7.2 1.9 40 5.9 NNW 33 48 18 26 1004.3 1004.3 0.2
28/11:38am 14.2 6.2 3.7 49 4.8 NW 35 54 19 29 1004.8 - 0.2
28/11:30am 14.3 5.9 3.5 48 4.9 NW 37 52 20 28 1004.8 - 0.2
28/11:26am 14.5 6.8 3.5 47 5.0 NNW 33 52 18 28 1005.1 - 0.2
28/11:00am 14.5 7.4 3.8 48 4.9 NW 30 44 16 24 1005.4 1005.4 0.0
28/10:30am 14.5 7.4 3.8 48 4.9 NW 30 43 16 23 1005.4 - 0.0
28/10:00am 14.4 9.6 4.8 52 4.5 NNW 19 28 10 15 1005.7 1005.7 0.0
28/09:30am 14.1 9.1 4.6 52 4.4 NNW 20 32 11 17 1005.7 - 0.0
28/09:00am 13.6 8.6 4.5 54 4.2 NNW 20 32 11 17 1005.8 1005.8 0.0
28/08:30am 12.4 8.9 5.3 62 3.3 NNW 13 20 7 11 1005.8 - 0.0
28/08:00am 12.1 7.8 5.4 63 3.1 NNW 17 28 9 15 1005.6 1005.6 0.0
28/07:30am 11.6 6.8 5.8 67 2.7 NNW 20 30 11 16 1005.9 - 0.0
28/07:00am 11.4 6.9 6.1 70 2.5 N 19 33 10 18 1006.1 1006.1 0.0
28/06:30am 11.8 8.6 6.8 71 2.4 NNW 13 17 7 9 1006.3 - 0.0
28/06:00am 12.5 9.2 6.2 65 3.0 NNW 13 17 7 9 1006.0 1006.0 0.0
28/05:30am 11.5 8.2 6.4 71 2.4 NNW 13 15 7 8 1005.9 - 0.0
28/05:00am 12.0 7.9 6.1 67 2.8 N 17 24 9 13 1005.9 1005.9 0.0
28/04:30am 10.6 7.2 5.9 73 2.2 NNW 13 20 7 11 1006.4 - 0.0
28/04:00am 9.8 6.2 4.9 71 2.2 NNW 13 19 7 10 1006.4 1006.4 0.0
28/03:30am 8.6 5.0 5.0 78 1.6 NNW 13 19 7 10 1006.7 - 0.0
28/03:00am 10.2 7.4 5.2 71 2.3 NNW 9 15 5 8 1007.2 1007.2 0.0
28/02:30am 9.3 7.0 5.8 79 1.6 S 7 9 4 5 1007.8 - 0.0
28/02:00am 9.0 5.6 5.7 80 1.5 N 13 19 7 10 1008.2 1008.2 0.0
28/01:30am 8.8 5.8 6.0 82 1.3 NNW 11 17 6 9 1008.7 - 0.0
28/01:00am 10.2 8.1 5.9 74 2.0 NE 6 9 3 5 1008.7 1008.7 0.0
28/12:30am 9.6 7.4 6.1 79 1.6 WNW 7 11 4 6 1009.2 - 0.0
28/12:00am 10.1 6.4 6.2 77 1.8 NNW 15 20 8 11 1009.5 1009.5 0.0
 
Date/Time
EST
Tmp

°C
App
Tmp
°C
Dew
Point
°C
Rel
Hum
%
Delta-T

°C
Wind Press
QNH
hPa
Press
MSL
hPa
Rain
since
9 am
mm
Dir
 
Spd
km/h
Gust
km/h
Spd
kts
Gust
kts
27/11:30pm 9.8 5.7 6.1 78 1.7 NNW 17 32 9 17 1010.1 - 0.0
27/11:00pm 10.3 5.8 6.2 76 1.9 N 19 26 10 14 1010.1 1010.1 0.0
27/10:30pm 10.6 7.2 6.1 74 2.1 WNW 13 19 7 10 1011.0 - 0.0
27/10:00pm 9.9 6.6 6.2 78 1.7 NNW 13 26 7 14 1011.4 1011.4 0.0
27/09:30pm 10.2 6.8 5.9 74 2.0 N 13 19 7 10 1011.5 - 0.0
27/09:00pm 9.8 7.1 5.4 74 2.0 N 9 13 5 7 1011.8 1011.8 0.0
27/08:30pm 9.8 7.6 5.4 74 2.0 W 6 9 3 5 1011.9 - 0.0
27/08:00pm 8.5 6.1 5.1 79 1.5 SSE 7 11 4 6 1012.2 1012.2 0.0
27/07:30pm 10.1 9.0 5.3 72 2.2 CALM 0 4 0 2 1012.4 - 0.0
27/07:00pm 8.4 7.0 5.5 82 1.3 SSW 2 7 1 4 1012.7 1012.7 0.0
27/06:30pm 9.2 6.9 5.5 78 1.7 S 7 9 4 5 1012.6 - 0.0
27/06:00pm 11.2 9.0 5.1 66 2.8 NNE 6 9 3 5 1012.7 1012.7 0.0
27/05:30pm 11.0 7.8 5.3 68 2.6 N 11 13 6 7 1012.9 - 0.0
27/05:00pm 11.2 7.7 5.6 68 2.6 N 13 19 7 10 1013.0 1013.0 0.0
27/04:30pm 12.7 7.9 4.9 59 3.6 N 19 28 10 15 1013.0 - 0.0
27/04:00pm 13.3 8.5 4.6 55 4.0 N 19 26 10 14 1013.2 1013.3 0.0
27/03:30pm 13.9 10.6 4.6 53 4.3 NW 11 15 6 8 1013.5 - 0.0
27/03:00pm 14.6 11.8 5.0 52 4.5 N 9 11 5 6 1013.4 1013.5 0.0
27/02:30pm 14.6 11.4 5.0 52 4.5 N 11 17 6 9 1013.6 - 0.0
27/02:00pm 14.5 10.3 3.8 48 4.9 NNW 15 28 8 15 1014.2 1014.3 0.0
27/01:30pm 14.2 10.5 4.2 51 4.6 NNW 13 19 7 10 1014.7 - 0.0

Latest Capital City Observations: Canberra | Sydney | Melbourne | Brisbane | Adelaide | Perth | Hobart | Darwin

Other Formats:

Comma delimited format used in spreadsheet applications
http://www.bom.gov.au/fwo/IDT60901/IDT60901.94975.axf

JavaScript Object Notation format (JSON) in row-major order
http://www.bom.gov.au/fwo/IDT60901/IDT60901.94975.json